sensor_id;sensor_type;location;lat;lon;timestamp;temperature;humidity
63202;DHT22;49296;48.188;11.566;2022-07-05T00:00:21;20.08;77.05
63202;DHT22;49296;48.188;11.566;2022-07-05T00:02:47;20.19;76.57
63202;DHT22;49296;48.188;11.566;2022-07-05T00:05:14;20.19;76.22
63202;DHT22;49296;48.188;11.566;2022-07-05T00:07:40;20.13;75.65
63202;DHT22;49296;48.188;11.566;2022-07-05T00:10:08;20.15;75.53
63202;DHT22;49296;48.188;11.566;2022-07-05T00:12:35;20.16;75.42
63202;DHT22;49296;48.188;11.566;2022-07-05T00:15:02;20.23;74.96
63202;DHT22;49296;48.188;11.566;2022-07-05T00:17:28;19.99;75.60
63202;DHT22;49296;48.188;11.566;2022-07-05T00:19:55;20.06;75.45
63202;DHT22;49296;48.188;11.566;2022-07-05T00:22:21;19.98;76.05
63202;DHT22;49296;48.188;11.566;2022-07-05T00:24:48;19.89;75.65
63202;DHT22;49296;48.188;11.566;2022-07-05T00:27:17;19.67;76.44
63202;DHT22;49296;48.188;11.566;2022-07-05T00:29:44;19.66;76.48
63202;DHT22;49296;48.188;11.566;2022-07-05T00:32:11;19.67;76.37
63202;DHT22;49296;48.188;11.566;2022-07-05T00:34:37;19.56;76.97
63202;DHT22;49296;48.188;11.566;2022-07-05T00:37:03;19.34;77.62
63202;DHT22;49296;48.188;11.566;2022-07-05T00:39:30;19.29;78.20
63202;DHT22;49296;48.188;11.566;2022-07-05T00:41:56;19.26;78.79
63202;DHT22;49296;48.188;11.566;2022-07-05T00:44:30;19.27;79.23
63202;DHT22;49296;48.188;11.566;2022-07-05T00:46:57;19.11;79.77
63202;DHT22;49296;48.188;11.566;2022-07-05T00:49:24;19.16;79.97
63202;DHT22;49296;48.188;11.566;2022-07-05T00:51:50;19.12;79.99
63202;DHT22;49296;48.188;11.566;2022-07-05T00:54:17;19.20;79.75
63202;DHT22;49296;48.188;11.566;2022-07-05T00:56:43;19.23;79.47
63202;DHT22;49296;48.188;11.566;2022-07-05T00:59:10;19.15;79.51
63202;DHT22;49296;48.188;11.566;2022-07-05T01:01:38;19.23;79.27
63202;DHT22;49296;48.188;11.566;2022-07-05T01:04:04;19.36;78.95
63202;DHT22;49296;48.188;11.566;2022-07-05T01:06:31;19.56;78.45
63202;DHT22;49296;48.188;11.566;2022-07-05T01:08:58;19.61;77.86
63202;DHT22;49296;48.188;11.566;2022-07-05T01:11:24;19.37;78.34
63202;DHT22;49296;48.188;11.566;2022-07-05T01:13:51;19.40;78.47
63202;DHT22;49296;48.188;11.566;2022-07-05T01:16:17;19.49;78.30
63202;DHT22;49296;48.188;11.566;2022-07-05T01:18:45;19.68;77.99
63202;DHT22;49296;48.188;11.566;2022-07-05T01:21:12;19.47;77.56
63202;DHT22;49296;48.188;11.566;2022-07-05T01:23:40;19.45;77.76
63202;DHT22;49296;48.188;11.566;2022-07-05T01:26:07;19.47;78.17
63202;DHT22;49296;48.188;11.566;2022-07-05T01:28:34;19.26;77.88
63202;DHT22;49296;48.188;11.566;2022-07-05T01:31:00;19.26;78.80
63202;DHT22;49296;48.188;11.566;2022-07-05T01:33:27;19.23;78.85
63202;DHT22;49296;48.188;11.566;2022-07-05T01:35:54;19.06;78.90
63202;DHT22;49296;48.188;11.566;2022-07-05T01:38:21;18.95;79.29
63202;DHT22;49296;48.188;11.566;2022-07-05T01:40:49;18.98;78.93
63202;DHT22;49296;48.188;11.566;2022-07-05T01:43:17;19.04;78.61
63202;DHT22;49296;48.188;11.566;2022-07-05T01:45:43;19.04;78.92
63202;DHT22;49296;48.188;11.566;2022-07-05T01:48:11;19.14;77.84
63202;DHT22;49296;48.188;11.566;2022-07-05T01:53:42;19.04;77.64
63202;DHT22;49296;48.188;11.566;2022-07-05T01:56:10;19.08;77.77
63202;DHT22;49296;48.188;11.566;2022-07-05T01:58:36;18.94;77.95
63202;DHT22;49296;48.188;11.566;2022-07-05T02:01:03;19.01;78.43
63202;DHT22;49296;48.188;11.566;2022-07-05T02:03:29;18.98;77.92
63202;DHT22;49296;48.188;11.566;2022-07-05T02:05:56;19.05;77.75
63202;DHT22;49296;48.188;11.566;2022-07-05T02:08:26;19.01;78.14
63202;DHT22;49296;48.188;11.566;2022-07-05T02:10:54;18.97;78.26
63202;DHT22;49296;48.188;11.566;2022-07-05T02:13:22;19.02;77.89
63202;DHT22;49296;48.188;11.566;2022-07-05T02:15:48;18.98;77.73
63202;DHT22;49296;48.188;11.566;2022-07-05T02:18:15;18.95;78.15
63202;DHT22;49296;48.188;11.566;2022-07-05T02:20:41;18.83;78.40
63202;DHT22;49296;48.188;11.566;2022-07-05T02:23:08;18.80;78.31
63202;DHT22;49296;48.188;11.566;2022-07-05T02:25:34;18.77;78.36
63202;DHT22;49296;48.188;11.566;2022-07-05T02:28:01;18.77;78.59
63202;DHT22;49296;48.188;11.566;2022-07-05T02:30:29;18.80;78.25
63202;DHT22;49296;48.188;11.566;2022-07-05T02:32:55;18.81;78.20
63202;DHT22;49296;48.188;11.566;2022-07-05T02:35:22;18.87;78.16
63202;DHT22;49296;48.188;11.566;2022-07-05T02:37:48;18.88;77.94
63202;DHT22;49296;48.188;11.566;2022-07-05T02:40:14;18.81;78.50
63202;DHT22;49296;48.188;11.566;2022-07-05T02:42:41;18.77;78.19
63202;DHT22;49296;48.188;11.566;2022-07-05T02:45:08;18.77;78.46
63202;DHT22;49296;48.188;11.566;2022-07-05T02:47:35;18.72;77.81
63202;DHT22;49296;48.188;11.566;2022-07-05T02:50:02;18.80;77.79
63202;DHT22;49296;48.188;11.566;2022-07-05T02:52:29;18.84;77.95
63202;DHT22;49296;48.188;11.566;2022-07-05T02:54:55;18.91;77.88
63202;DHT22;49296;48.188;11.566;2022-07-05T02:57:22;19.05;77.64
63202;DHT22;49296;48.188;11.566;2022-07-05T02:59:48;19.06;77.17
63202;DHT22;49296;48.188;11.566;2022-07-05T03:02:15;18.99;77.48
63202;DHT22;49296;48.188;11.566;2022-07-05T03:04:42;19.16;77.09
63202;DHT22;49296;48.188;11.566;2022-07-05T03:07:09;19.22;76.82
63202;DHT22;49296;48.188;11.566;2022-07-05T03:09:35;19.11;77.42
63202;DHT22;49296;48.188;11.566;2022-07-05T03:12:02;19.01;77.85
63202;DHT22;49296;48.188;11.566;2022-07-05T03:14:28;18.84;78.51
63202;DHT22;49296;48.188;11.566;2022-07-05T03:16:55;18.80;78.83
63202;DHT22;49296;48.188;11.566;2022-07-05T03:19:21;18.85;78.52
63202;DHT22;49296;48.188;11.566;2022-07-05T03:21:49;18.80;78.77
63202;DHT22;49296;48.188;11.566;2022-07-05T03:24:15;18.91;78.25
63202;DHT22;49296;48.188;11.566;2022-07-05T03:26:42;18.85;78.73
63202;DHT22;49296;48.188;11.566;2022-07-05T03:29:08;19.06;78.33
63202;DHT22;49296;48.188;11.566;2022-07-05T03:31:35;19.08;78.05
63202;DHT22;49296;48.188;11.566;2022-07-05T03:34:01;19.09;78.02
63202;DHT22;49296;48.188;11.566;2022-07-05T03:36:28;18.98;78.25
63202;DHT22;49296;48.188;11.566;2022-07-05T03:38:55;18.91;78.11
63202;DHT22;49296;48.188;11.566;2022-07-05T03:41:22;18.98;77.91
63202;DHT22;49296;48.188;11.566;2022-07-05T03:43:48;19.12;77.88
63202;DHT22;49296;48.188;11.566;2022-07-05T03:46:15;19.18;77.71
63202;DHT22;49296;48.188;11.566;2022-07-05T03:48:41;19.19;77.43
63202;DHT22;49296;48.188;11.566;2022-07-05T03:51:07;19.29;77.25
63202;DHT22;49296;48.188;11.566;2022-07-05T03:53:34;19.33;77.19
63202;DHT22;49296;48.188;11.566;2022-07-05T03:56:02;19.19;77.72
63202;DHT22;49296;48.188;11.566;2022-07-05T03:58:28;19.04;78.21
63202;DHT22;49296;48.188;11.566;2022-07-05T04:00:54;19.14;77.75
63202;DHT22;49296;48.188;11.566;2022-07-05T04:03:21;19.01;77.96
63202;DHT22;49296;48.188;11.566;2022-07-05T04:05:47;18.87;78.30
63202;DHT22;49296;48.188;11.566;2022-07-05T04:08:14;18.88;78.28
63202;DHT22;49296;48.188;11.566;2022-07-05T04:10:40;18.78;78.45
63202;DHT22;49296;48.188;11.566;2022-07-05T04:13:08;18.80;78.21
63202;DHT22;49296;48.188;11.566;2022-07-05T04:15:34;18.83;77.92
63202;DHT22;49296;48.188;11.566;2022-07-05T04:18:01;18.81;77.92
63202;DHT22;49296;48.188;11.566;2022-07-05T04:20:27;18.71;78.08
63202;DHT22;49296;48.188;11.566;2022-07-05T04:22:54;18.67;78.14
63202;DHT22;49296;48.188;11.566;2022-07-05T04:25:21;18.67;78.26
63202;DHT22;49296;48.188;11.566;2022-07-05T04:27:48;18.68;78.22
63202;DHT22;49296;48.188;11.566;2022-07-05T04:30:17;18.68;78.06
63202;DHT22;49296;48.188;11.566;2022-07-05T04:32:43;18.70;78.09
63202;DHT22;49296;48.188;11.566;2022-07-05T04:35:10;18.67;78.10
63202;DHT22;49296;48.188;11.566;2022-07-05T04:37:37;18.65;78.25
63202;DHT22;49296;48.188;11.566;2022-07-05T04:40:04;18.70;78.11
63202;DHT22;49296;48.188;11.566;2022-07-05T04:42:30;18.74;77.85
63202;DHT22;49296;48.188;11.566;2022-07-05T04:44:57;18.81;77.21
63202;DHT22;49296;48.188;11.566;2022-07-05T04:47:25;18.85;77.23
63202;DHT22;49296;48.188;11.566;2022-07-05T04:52:24;18.75;77.65
63202;DHT22;49296;48.188;11.566;2022-07-05T04:54:51;18.83;77.43
63202;DHT22;49296;48.188;11.566;2022-07-05T04:57:18;18.88;77.10
63202;DHT22;49296;48.188;11.566;2022-07-05T04:59:45;18.78;77.40
63202;DHT22;49296;48.188;11.566;2022-07-05T05:02:11;18.80;77.29
63202;DHT22;49296;48.188;11.566;2022-07-05T05:04:39;18.84;77.21
63202;DHT22;49296;48.188;11.566;2022-07-05T05:07:06;18.95;76.88
63202;DHT22;49296;48.188;11.566;2022-07-05T05:09:34;19.01;76.95
63202;DHT22;49296;48.188;11.566;2022-07-05T05:12:01;18.98;77.43
63202;DHT22;49296;48.188;11.566;2022-07-05T05:14:28;19.04;76.75
63202;DHT22;49296;48.188;11.566;2022-07-05T05:16:54;19.12;76.98
63202;DHT22;49296;48.188;11.566;2022-07-05T05:19:24;19.11;77.11
63202;DHT22;49296;48.188;11.566;2022-07-05T05:21:52;19.15;77.36
63202;DHT22;49296;48.188;11.566;2022-07-05T05:24:18;19.16;77.27
63202;DHT22;49296;48.188;11.566;2022-07-05T05:26:45;19.09;77.79
63202;DHT22;49296;48.188;11.566;2022-07-05T05:29:12;19.16;77.37
63202;DHT22;49296;48.188;11.566;2022-07-05T05:31:40;19.14;77.52
63202;DHT22;49296;48.188;11.566;2022-07-05T05:34:13;19.20;77.76
63202;DHT22;49296;48.188;11.566;2022-07-05T05:36:42;19.32;77.21
63202;DHT22;49296;48.188;11.566;2022-07-05T05:39:10;19.14;77.76
63202;DHT22;49296;48.188;11.566;2022-07-05T05:41:36;19.23;77.33
63202;DHT22;49296;48.188;11.566;2022-07-05T05:44:03;19.25;77.58
63202;DHT22;49296;48.188;11.566;2022-07-05T05:46:30;19.27;77.33
63202;DHT22;49296;48.188;11.566;2022-07-05T05:48:56;19.16;78.35
63202;DHT22;49296;48.188;11.566;2022-07-05T05:51:27;19.37;77.68
63202;DHT22;49296;48.188;11.566;2022-07-05T05:53:54;19.45;77.31
63202;DHT22;49296;48.188;11.566;2022-07-05T05:56:22;19.45;77.38
63202;DHT22;49296;48.188;11.566;2022-07-05T05:58:50;19.57;77.15
63202;DHT22;49296;48.188;11.566;2022-07-05T06:01:16;19.64;77.18
63202;DHT22;49296;48.188;11.566;2022-07-05T06:03:42;19.63;76.97
63202;DHT22;49296;48.188;11.566;2022-07-05T06:06:09;19.53;77.61
63202;DHT22;49296;48.188;11.566;2022-07-05T06:08:35;19.50;78.14
63202;DHT22;49296;48.188;11.566;2022-07-05T06:11:02;19.60;77.76
63202;DHT22;49296;48.188;11.566;2022-07-05T06:13:30;19.64;77.87
63202;DHT22;49296;48.188;11.566;2022-07-05T06:15:57;19.61;77.57
63202;DHT22;49296;48.188;11.566;2022-07-05T06:18:23;19.68;77.65
63202;DHT22;49296;48.188;11.566;2022-07-05T06:20:49;19.81;77.52
63202;DHT22;49296;48.188;11.566;2022-07-05T06:23:16;19.85;77.49
63202;DHT22;49296;48.188;11.566;2022-07-05T06:25:42;19.92;77.19
63202;DHT22;49296;48.188;11.566;2022-07-05T06:28:09;19.85;77.90
63202;DHT22;49296;48.188;11.566;2022-07-05T06:30:38;19.92;77.26
63202;DHT22;49296;48.188;11.566;2022-07-05T06:33:04;19.95;76.71
63202;DHT22;49296;48.188;11.566;2022-07-05T06:35:31;19.98;76.76
63202;DHT22;49296;48.188;11.566;2022-07-05T06:37:58;20.13;76.39
63202;DHT22;49296;48.188;11.566;2022-07-05T06:40:25;20.20;76.69
63202;DHT22;49296;48.188;11.566;2022-07-05T06:42:53;19.96;77.14
63202;DHT22;49296;48.188;11.566;2022-07-05T06:45:20;20.01;77.80
63202;DHT22;49296;48.188;11.566;2022-07-05T06:47:54;20.16;76.58
63202;DHT22;49296;48.188;11.566;2022-07-05T06:50:21;20.26;76.56
63202;DHT22;49296;48.188;11.566;2022-07-05T06:52:47;20.41;75.45
63202;DHT22;49296;48.188;11.566;2022-07-05T06:55:14;20.41;76.14
63202;DHT22;49296;48.188;11.566;2022-07-05T06:57:40;20.33;74.56
63202;DHT22;49296;48.188;11.566;2022-07-05T07:00:09;20.32;72.50
63202;DHT22;49296;48.188;11.566;2022-07-05T07:02:35;20.36;72.87
63202;DHT22;49296;48.188;11.566;2022-07-05T07:05:03;20.48;72.81
63202;DHT22;49296;48.188;11.566;2022-07-05T07:07:30;20.64;72.04
63202;DHT22;49296;48.188;11.566;2022-07-05T07:10:14;20.73;72.00
63202;DHT22;49296;48.188;11.566;2022-07-05T07:12:40;20.88;71.52
63202;DHT22;49296;48.188;11.566;2022-07-05T07:15:07;20.82;70.13
63202;DHT22;49296;48.188;11.566;2022-07-05T07:17:34;20.71;70.85
63202;DHT22;49296;48.188;11.566;2022-07-05T07:20:00;20.71;71.33
63202;DHT22;49296;48.188;11.566;2022-07-05T07:22:28;20.70;71.29
63202;DHT22;49296;48.188;11.566;2022-07-05T07:24:54;20.67;71.47
63202;DHT22;49296;48.188;11.566;2022-07-05T07:27:21;20.71;71.57
63202;DHT22;49296;48.188;11.566;2022-07-05T07:29:47;20.82;71.12
63202;DHT22;49296;48.188;11.566;2022-07-05T07:32:14;20.99;71.02
63202;DHT22;49296;48.188;11.566;2022-07-05T07:34:40;21.12;70.95
63202;DHT22;49296;48.188;11.566;2022-07-05T07:37:07;21.30;69.60
63202;DHT22;49296;48.188;11.566;2022-07-05T07:39:39;21.29;69.59
63202;DHT22;49296;48.188;11.566;2022-07-05T07:42:06;21.40;67.88
63202;DHT22;49296;48.188;11.566;2022-07-05T07:44:32;21.47;67.84
63202;DHT22;49296;48.188;11.566;2022-07-05T07:46:59;21.60;68.19
63202;DHT22;49296;48.188;11.566;2022-07-05T07:49:25;21.47;67.70
63202;DHT22;49296;48.188;11.566;2022-07-05T07:51:52;21.44;67.58
63202;DHT22;49296;48.188;11.566;2022-07-05T07:54:18;21.32;68.45
63202;DHT22;49296;48.188;11.566;2022-07-05T07:56:46;21.44;67.86
63202;DHT22;49296;48.188;11.566;2022-07-05T07:59:12;21.54;66.52
63202;DHT22;49296;48.188;11.566;2022-07-05T08:01:39;21.58;66.57
63202;DHT22;49296;48.188;11.566;2022-07-05T08:04:05;21.74;65.22
63202;DHT22;49296;48.188;11.566;2022-07-05T08:06:31;21.64;64.04
63202;DHT22;49296;48.188;11.566;2022-07-05T08:08:58;21.65;64.77
63202;DHT22;49296;48.188;11.566;2022-07-05T08:11:24;21.71;64.68
63202;DHT22;49296;48.188;11.566;2022-07-05T08:13:52;21.82;63.71
63202;DHT22;49296;48.188;11.566;2022-07-05T08:16:18;21.87;62.62
63202;DHT22;49296;48.188;11.566;2022-07-05T08:18:45;21.95;62.25
63202;DHT22;49296;48.188;11.566;2022-07-05T08:21:28;21.92;58.68
63202;DHT22;49296;48.188;11.566;2022-07-05T08:24:00;21.82;59.10
63202;DHT22;49296;48.188;11.566;2022-07-05T08:26:27;21.89;58.87
63202;DHT22;49296;48.188;11.566;2022-07-05T08:28:56;21.98;57.51
63202;DHT22;49296;48.188;11.566;2022-07-05T08:31:23;22.09;56.14
63202;DHT22;49296;48.188;11.566;2022-07-05T08:33:50;22.09;54.49
63202;DHT22;49296;48.188;11.566;2022-07-05T08:36:16;22.13;55.40
63202;DHT22;49296;48.188;11.566;2022-07-05T08:38:43;22.02;54.60
63202;DHT22;49296;48.188;11.566;2022-07-05T08:41:09;21.98;54.31
63202;DHT22;49296;48.188;11.566;2022-07-05T08:43:36;21.92;55.36
63202;DHT22;49296;48.188;11.566;2022-07-05T08:46:07;21.87;54.63
63202;DHT22;49296;48.188;11.566;2022-07-05T08:48:36;21.95;55.34
63202;DHT22;49296;48.188;11.566;2022-07-05T08:51:07;21.82;53.51
63202;DHT22;49296;48.188;11.566;2022-07-05T08:53:34;21.87;52.30
63202;DHT22;49296;48.188;11.566;2022-07-05T08:56:01;21.89;52.04
63202;DHT22;49296;48.188;11.566;2022-07-05T08:58:27;21.98;52.52
63202;DHT22;49296;48.188;11.566;2022-07-05T09:00:54;22.02;52.23
63202;DHT22;49296;48.188;11.566;2022-07-05T09:03:22;22.09;52.74
63202;DHT22;49296;48.188;11.566;2022-07-05T09:05:50;22.10;52.87
63202;DHT22;49296;48.188;11.566;2022-07-05T09:08:19;22.17;51.02
63202;DHT22;49296;48.188;11.566;2022-07-05T09:10:47;22.30;52.25
63202;DHT22;49296;48.188;11.566;2022-07-05T09:13:15;22.35;51.99
63202;DHT22;49296;48.188;11.566;2022-07-05T09:15:41;22.39;48.17
63202;DHT22;49296;48.188;11.566;2022-07-05T09:18:09;22.35;48.52
63202;DHT22;49296;48.188;11.566;2022-07-05T09:20:37;22.40;49.04
63202;DHT22;49296;48.188;11.566;2022-07-05T09:23:03;22.50;49.22
63202;DHT22;49296;48.188;11.566;2022-07-05T09:25:30;22.56;50.33
63202;DHT22;49296;48.188;11.566;2022-07-05T09:27:57;22.71;50.28
63202;DHT22;49296;48.188;11.566;2022-07-05T09:30:26;22.78;50.64
63202;DHT22;49296;48.188;11.566;2022-07-05T09:33:00;22.78;49.84
63202;DHT22;49296;48.188;11.566;2022-07-05T09:35:27;22.81;49.45
63202;DHT22;49296;48.188;11.566;2022-07-05T09:37:54;22.81;49.15
63202;DHT22;49296;48.188;11.566;2022-07-05T09:40:21;22.90;49.06
63202;DHT22;49296;48.188;11.566;2022-07-05T09:42:47;22.87;49.43
63202;DHT22;49296;48.188;11.566;2022-07-05T09:45:21;23.05;49.79
63202;DHT22;49296;48.188;11.566;2022-07-05T09:47:47;22.98;49.01
63202;DHT22;49296;48.188;11.566;2022-07-05T09:50:14;22.92;48.47
63202;DHT22;49296;48.188;11.566;2022-07-05T09:52:41;22.91;49.05
63202;DHT22;49296;48.188;11.566;2022-07-05T09:55:09;22.94;48.61
63202;DHT22;49296;48.188;11.566;2022-07-05T09:57:36;22.84;48.65
63202;DHT22;49296;48.188;11.566;2022-07-05T10:00:05;22.96;47.68
63202;DHT22;49296;48.188;11.566;2022-07-05T10:02:39;23.05;49.03
63202;DHT22;49296;48.188;11.566;2022-07-05T10:05:08;22.87;46.62
63202;DHT22;49296;48.188;11.566;2022-07-05T10:07:39;23.02;46.24
63202;DHT22;49296;48.188;11.566;2022-07-05T10:10:06;23.10;46.08
63202;DHT22;49296;48.188;11.566;2022-07-05T10:12:35;23.23;46.74
63202;DHT22;49296;48.188;11.566;2022-07-05T10:15:02;23.29;44.73
63202;DHT22;49296;48.188;11.566;2022-07-05T10:17:29;23.42;45.01
63202;DHT22;49296;48.188;11.566;2022-07-05T10:19:56;23.49;45.70
63202;DHT22;49296;48.188;11.566;2022-07-05T10:22:24;23.65;46.27
63202;DHT22;49296;48.188;11.566;2022-07-05T10:24:53;23.64;45.30
63202;DHT22;49296;48.188;11.566;2022-07-05T10:27:20;23.64;44.79
63202;DHT22;49296;48.188;11.566;2022-07-05T10:29:49;23.44;44.16
63202;DHT22;49296;48.188;11.566;2022-07-05T10:32:17;23.55;45.22
63202;DHT22;49296;48.188;11.566;2022-07-05T10:34:44;23.70;45.06
63202;DHT22;49296;48.188;11.566;2022-07-05T10:37:12;23.74;44.70
63202;DHT22;49296;48.188;11.566;2022-07-05T10:39:38;23.84;43.95
63202;DHT22;49296;48.188;11.566;2022-07-05T10:42:05;23.92;43.26
63202;DHT22;49296;48.188;11.566;2022-07-05T10:44:33;24.02;42.19
63202;DHT22;49296;48.188;11.566;2022-07-05T10:47:07;23.98;42.39
63202;DHT22;49296;48.188;11.566;2022-07-05T10:49:36;23.85;42.36
63202;DHT22;49296;48.188;11.566;2022-07-05T10:52:03;23.70;43.41
63202;DHT22;49296;48.188;11.566;2022-07-05T10:54:29;23.67;42.67
63202;DHT22;49296;48.188;11.566;2022-07-05T11:02:27;24.01;43.58
63202;DHT22;49296;48.188;11.566;2022-07-05T11:04:54;23.78;42.24
63202;DHT22;49296;48.188;11.566;2022-07-05T11:10:03;23.90;43.16
63202;DHT22;49296;48.188;11.566;2022-07-05T11:12:35;23.96;42.19
63202;DHT22;49296;48.188;11.566;2022-07-05T11:15:06;23.92;41.60
63202;DHT22;49296;48.188;11.566;2022-07-05T11:17:35;24.08;41.74
63202;DHT22;49296;48.188;11.566;2022-07-05T11:20:06;24.08;39.63
63202;DHT22;49296;48.188;11.566;2022-07-05T11:22:34;24.26;41.21
63202;DHT22;49296;48.188;11.566;2022-07-05T11:25:01;24.40;41.05
63202;DHT22;49296;48.188;11.566;2022-07-05T11:27:27;24.34;39.23
63202;DHT22;49296;48.188;11.566;2022-07-05T11:29:54;24.46;40.51
63202;DHT22;49296;48.188;11.566;2022-07-05T11:32:21;24.63;40.80
63202;DHT22;49296;48.188;11.566;2022-07-05T11:34:50;24.57;39.79
63202;DHT22;49296;48.188;11.566;2022-07-05T11:37:20;24.46;38.43
63202;DHT22;49296;48.188;11.566;2022-07-05T11:42:30;24.60;39.53
63202;DHT22;49296;48.188;11.566;2022-07-05T11:44:56;24.47;40.06
63202;DHT22;49296;48.188;11.566;2022-07-05T11:47:23;24.29;40.44
63202;DHT22;49296;48.188;11.566;2022-07-05T11:49:54;24.37;40.75
63202;DHT22;49296;48.188;11.566;2022-07-05T11:52:24;24.50;40.86
63202;DHT22;49296;48.188;11.566;2022-07-05T11:54:51;24.61;40.13
63202;DHT22;49296;48.188;11.566;2022-07-05T11:57:17;24.77;39.05
63202;DHT22;49296;48.188;11.566;2022-07-05T11:59:44;24.88;38.51
63202;DHT22;49296;48.188;11.566;2022-07-05T12:02:10;25.03;38.84
63202;DHT22;49296;48.188;11.566;2022-07-05T12:04:37;25.15;39.07
63202;DHT22;49296;48.188;11.566;2022-07-05T12:07:05;25.27;38.95
63202;DHT22;49296;48.188;11.566;2022-07-05T12:09:32;25.23;38.52
63202;DHT22;49296;48.188;11.566;2022-07-05T12:12:16;25.38;39.12
63202;DHT22;49296;48.188;11.566;2022-07-05T12:15:01;25.54;38.28
63202;DHT22;49296;48.188;11.566;2022-07-05T12:17:27;25.65;38.12
63202;DHT22;49296;48.188;11.566;2022-07-05T12:19:53;25.84;38.06
63202;DHT22;49296;48.188;11.566;2022-07-05T12:22:31;26.03;38.47
63202;DHT22;49296;48.188;11.566;2022-07-05T12:24:58;26.15;38.80
63202;DHT22;49296;48.188;11.566;2022-07-05T12:27:26;26.09;36.12
63202;DHT22;49296;48.188;11.566;2022-07-05T12:29:52;26.26;36.37
63202;DHT22;49296;48.188;11.566;2022-07-05T12:32:19;26.34;36.13
63202;DHT22;49296;48.188;11.566;2022-07-05T12:34:45;26.43;35.59
63202;DHT22;49296;48.188;11.566;2022-07-05T12:37:19;26.50;35.47
63202;DHT22;49296;48.188;11.566;2022-07-05T12:39:46;26.71;35.61
63202;DHT22;49296;48.188;11.566;2022-07-05T12:45:05;26.79;35.96
63202;DHT22;49296;48.188;11.566;2022-07-05T12:47:35;26.71;35.17
63202;DHT22;49296;48.188;11.566;2022-07-05T12:50:02;26.91;36.45
63202;DHT22;49296;48.188;11.566;2022-07-05T12:52:28;26.62;35.12
63202;DHT22;49296;48.188;11.566;2022-07-05T12:57:55;27.20;35.80
63202;DHT22;49296;48.188;11.566;2022-07-05T13:00:28;27.03;35.07
63202;DHT22;49296;48.188;11.566;2022-07-05T13:02:55;27.44;34.89
63202;DHT22;49296;48.188;11.566;2022-07-05T13:05:22;27.84;34.61
63202;DHT22;49296;48.188;11.566;2022-07-05T13:07:49;28.34;33.13
63202;DHT22;49296;48.188;11.566;2022-07-05T13:10:17;28.48;33.52
63202;DHT22;49296;48.188;11.566;2022-07-05T13:12:43;28.51;33.04
63202;DHT22;49296;48.188;11.566;2022-07-05T13:15:11;28.24;32.52
63202;DHT22;49296;48.188;11.566;2022-07-05T13:17:38;28.71;33.00
63202;DHT22;49296;48.188;11.566;2022-07-05T13:20:04;28.55;32.10
63202;DHT22;49296;48.188;11.566;2022-07-05T13:22:31;28.98;32.29
63202;DHT22;49296;48.188;11.566;2022-07-05T13:24:58;28.86;31.53
63202;DHT22;49296;48.188;11.566;2022-07-05T13:27:24;29.12;31.77
63202;DHT22;49296;48.188;11.566;2022-07-05T13:29:51;28.68;32.69
63202;DHT22;49296;48.188;11.566;2022-07-05T13:32:19;28.32;31.43
63202;DHT22;49296;48.188;11.566;2022-07-05T13:34:46;28.30;31.91
63202;DHT22;49296;48.188;11.566;2022-07-05T13:37:14;28.64;31.44
63202;DHT22;49296;48.188;11.566;2022-07-05T13:39:40;29.33;32.39
63202;DHT22;49296;48.188;11.566;2022-07-05T13:42:07;28.99;31.47
63202;DHT22;49296;48.188;11.566;2022-07-05T13:44:33;29.26;32.10
63202;DHT22;49296;48.188;11.566;2022-07-05T13:47:00;28.75;31.62
63202;DHT22;49296;48.188;11.566;2022-07-05T13:49:27;29.12;31.24
63202;DHT22;49296;48.188;11.566;2022-07-05T13:51:55;28.57;31.79
63202;DHT22;49296;48.188;11.566;2022-07-05T13:54:21;29.33;30.82
63202;DHT22;49296;48.188;11.566;2022-07-05T13:56:48;29.85;29.56
63202;DHT22;49296;48.188;11.566;2022-07-05T13:59:14;29.85;29.43
63202;DHT22;49296;48.188;11.566;2022-07-05T14:01:41;30.06;28.54
63202;DHT22;49296;48.188;11.566;2022-07-05T14:04:07;30.06;28.50
63202;DHT22;49296;48.188;11.566;2022-07-05T14:06:35;30.24;29.16
63202;DHT22;49296;48.188;11.566;2022-07-05T14:09:03;30.82;29.16
63202;DHT22;49296;48.188;11.566;2022-07-05T14:11:29;30.60;27.84
63202;DHT22;49296;48.188;11.566;2022-07-05T14:13:56;30.64;27.68
63202;DHT22;49296;48.188;11.566;2022-07-05T14:16:24;30.90;27.26
63202;DHT22;49296;48.188;11.566;2022-07-05T14:18:51;31.20;27.79
63202;DHT22;49296;48.188;11.566;2022-07-05T14:21:18;31.68;27.22
63202;DHT22;49296;48.188;11.566;2022-07-05T14:23:46;32.14;26.23
63202;DHT22;49296;48.188;11.566;2022-07-05T14:26:12;31.52;27.32
63202;DHT22;49296;48.188;11.566;2022-07-05T14:28:39;31.62;26.95
63202;DHT22;49296;48.188;11.566;2022-07-05T14:31:05;31.12;26.94
63202;DHT22;49296;48.188;11.566;2022-07-05T14:33:32;31.16;27.31
63202;DHT22;49296;48.188;11.566;2022-07-05T14:35:59;31.17;26.87
63202;DHT22;49296;48.188;11.566;2022-07-05T14:38:25;31.82;26.84
63202;DHT22;49296;48.188;11.566;2022-07-05T14:40:53;32.27;26.14
63202;DHT22;49296;48.188;11.566;2022-07-05T14:43:20;32.19;26.32
63202;DHT22;49296;48.188;11.566;2022-07-05T14:45:46;32.95;26.07
63202;DHT22;49296;48.188;11.566;2022-07-05T14:48:13;31.92;26.97
63202;DHT22;49296;48.188;11.566;2022-07-05T14:50:40;31.31;27.22
63202;DHT22;49296;48.188;11.566;2022-07-05T14:53:06;30.95;28.41
63202;DHT22;49296;48.188;11.566;2022-07-05T14:55:34;30.10;29.47
63202;DHT22;49296;48.188;11.566;2022-07-05T14:58:02;30.68;28.61
63202;DHT22;49296;48.188;11.566;2022-07-05T15:00:28;31.45;27.77
63202;DHT22;49296;48.188;11.566;2022-07-05T15:02:55;31.85;27.99
63202;DHT22;49296;48.188;11.566;2022-07-05T15:05:21;31.84;28.03
63202;DHT22;49296;48.188;11.566;2022-07-05T15:07:48;32.12;26.86
63202;DHT22;49296;48.188;11.566;2022-07-05T15:10:14;31.68;27.60
63202;DHT22;49296;48.188;11.566;2022-07-05T15:12:40;30.34;29.77
63202;DHT22;49296;48.188;11.566;2022-07-05T15:15:09;29.81;30.37
63202;DHT22;49296;48.188;11.566;2022-07-05T15:17:35;30.64;29.48
63202;DHT22;49296;48.188;11.566;2022-07-05T15:20:02;30.90;28.43
63202;DHT22;49296;48.188;11.566;2022-07-05T15:22:29;31.59;27.92
63202;DHT22;49296;48.188;11.566;2022-07-05T15:24:55;31.44;28.02
63202;DHT22;49296;48.188;11.566;2022-07-05T15:27:22;32.16;28.15
63202;DHT22;49296;48.188;11.566;2022-07-05T15:29:49;32.51;27.45
63202;DHT22;49296;48.188;11.566;2022-07-05T15:32:17;32.50;27.61
63202;DHT22;49296;48.188;11.566;2022-07-05T15:34:44;32.38;27.79
63202;DHT22;49296;48.188;11.566;2022-07-05T15:37:10;31.13;29.15